Time;durP1;ratioP1;P1;durP2;ratioP2;P2;SDS_P1;SDS_P2;PMS_P1;PMS_P2;Temp;Humidity;BMP_temperature;BMP_pressure;BME280_temperature;BME280_humidity;BME280_pressure;Samples;Min_cycle;Max_cycle;Signal;HPM_P1;HPM_P2
2022/11/13 00:01:40;;;;;;;0.77;0.75;;;;;;;16.51;99.16;102499.94;20481496;28;20051;-91
2022/11/13 00:12:00;;;;;;;1.35;1.15;;;;;;;16.83;99.09;102539.41;20478492;28;20047;-92
2022/11/13 00:22:20;;;;;;;0.82;0.80;;;;;;;16.65;99.28;102515.28;20478100;28;20055;-91
2022/11/13 00:32:40;;;;;;;0.95;0.80;;;;;;;16.83;99.16;102528.63;20477054;28;20492;-91
2022/11/13 00:43:00;;;;;;;1.15;0.77;;;;;;;16.85;99.06;102518.66;20477072;28;20507;-92
2022/11/13 00:53:20;;;;;;;1.63;0.93;;;;;;;16.60;98.90;102454.69;20475645;28;20456;-91
2022/11/13 01:03:40;;;;;;;1.25;0.77;;;;;;;16.84;98.84;102500.78;20476732;28;20130;-91
2022/11/13 01:14:00;;;;;;;1.05;0.95;;;;;;;16.83;98.84;102482.91;20475615;28;20051;-91
2022/11/13 01:24:20;;;;;;;1.13;0.90;;;;;;;16.83;98.79;102488.28;20474838;28;20051;-91
2022/11/13 01:34:40;;;;;;;0.70;0.70;;;;;;;16.84;98.90;102483.75;20473675;28;20051;-93
2022/11/13 01:45:03;;;;;;;1.35;1.00;;;;;;;16.52;98.84;102420.19;20474010;28;20047;-92
2022/11/13 01:55:23;;;;;;;1.02;0.93;;;;;;;16.84;98.64;102451.50;20471634;28;20039;-91
2022/11/13 02:05:43;;;;;;;0.80;0.80;;;;;;;16.84;98.73;102451.50;20471249;28;20145;-92
2022/11/13 02:16:06;;;;;;;0.85;0.75;;;;;;;16.42;98.40;102392.09;20472391;28;20055;-91
2022/11/13 02:26:26;;;;;;;0.77;0.77;;;;;;;16.82;98.67;102433.63;20470248;28;20537;-91
2022/11/13 02:36:47;;;;;;;0.60;0.60;;;;;;;16.81;98.57;102428.34;20469995;28;20043;-92
2022/11/13 02:47:06;;;;;;;0.57;0.57;;;;;;;16.49;98.60;102370.13;20474397;28;20075;-91
2022/11/13 02:57:26;;;;;;;0.98;0.75;;;;;;;16.81;98.38;102404.13;20484701;28;20134;-92
2022/11/13 03:07:46;;;;;;;1.17;0.77;;;;;;;16.69;98.46;102365.41;20484727;28;20051;-91
2022/11/13 03:18:07;;;;;;;0.95;0.90;;;;;;;16.81;98.40;102388.00;20483927;28;20527;-91
2022/11/13 03:28:27;;;;;;;0.70;0.70;;;;;;;16.58;98.43;102336.47;20483158;28;20051;-90
2022/11/13 03:38:48;;;;;;;0.85;0.85;;;;;;;16.80;98.38;102364.75;20480577;28;20047;-90
2022/11/13 03:49:08;;;;;;;1.10;1.00;;;;;;;16.80;98.26;102354.00;20481372;28;20047;-91
2022/11/13 03:59:27;;;;;;;1.10;1.00;;;;;;;16.79;98.25;102352.22;20481014;28;20047;-91
2022/11/13 04:09:47;;;;;;;0.70;0.55;;;;;;;16.79;98.33;102350.44;20479614;28;20125;-91
2022/11/13 04:20:08;;;;;;;1.48;0.90;;;;;;;16.79;98.17;102355.81;20478541;28;20087;-91
2022/11/13 04:30:28;;;;;;;0.70;0.70;;;;;;;16.79;98.21;102352.22;20477536;28;20051;-91
2022/11/13 04:40:50;;;;;;;0.90;0.80;;;;;;;16.70;98.10;102336.66;20477444;28;20047;-91
2022/11/13 04:51:11;;;;;;;1.10;1.00;;;;;;;16.78;98.18;102342.44;20477367;28;20142;-91
2022/11/13 05:01:30;;;;;;;0.70;0.68;;;;;;;16.79;98.08;102344.16;20476265;28;20496;-91
2022/11/13 05:11:50;;;;;;;0.70;0.70;;;;;;;16.78;98.08;102345.13;20474002;28;20087;-91
2022/11/13 05:22:10;;;;;;;0.70;0.70;;;;;;;16.78;97.99;102339.75;20475285;28;20063;-90
2022/11/13 05:32:31;;;;;;;1.48;1.02;;;;;;;16.78;98.22;102329.00;20464497;28;20051;-93
2022/11/13 05:42:52;;;;;;;2.80;1.20;;;;;;;16.84;100.00;102320.56;20483331;28;20599;-93
2022/11/13 05:53:12;;;;;;;2.35;1.38;;;;;;;16.89;100.00;102302.31;20483947;28;20046;-93
2022/11/13 06:03:32;;;;;;;4.55;1.45;;;;;;;15.72;99.30;102093.47;20469113;28;20126;-91
2022/11/13 06:13:53;;;;;;;3.70;1.70;;;;;;;16.43;97.12;102181.50;20483291;28;20047;-90
2022/11/13 06:24:14;;;;;;;1.85;1.55;;;;;;;16.76;95.47;102224.22;20480087;28;20055;-90
2022/11/13 06:34:34;;;;;;;2.53;1.80;;;;;;;17.01;94.24;102254.13;20487538;28;20075;-89
2022/11/13 06:44:54;;;;;;;2.65;1.58;;;;;;;17.01;93.67;102268.41;20486279;28;20074;-89
2022/11/13 06:55:14;;;;;;;2.10;1.50;;;;;;;17.02;92.88;102278.25;20485481;28;20130;-89
2022/11/13 07:05:36;;;;;;;2.78;1.60;;;;;;;17.03;92.55;102269.22;20483992;28;20074;-89
2022/11/13 07:16:01;;;;;;;1.58;1.40;;;;;;;17.05;91.95;102275.34;20484545;28;20051;-89
2022/11/13 07:26:34;;;;;;;1.73;1.45;;;;;;;17.05;91.45;102278.03;20481820;28;20435;-91
2022/11/13 07:36:54;;;;;;;1.60;1.50;;;;;;;16.38;91.07;102161.16;20480639;28;20047;-90
2022/11/13 07:47:15;;;;;;;1.40;1.30;;;;;;;17.07;90.63;102264.47;20480606;28;20056;-88
2022/11/13 07:57:35;;;;;;;2.08;1.73;;;;;;;16.89;89.99;102229.69;20480865;28;20051;-90
2022/11/13 08:07:55;;;;;;;1.70;1.50;;;;;;;16.49;89.17;102163.13;20479036;28;20055;-90
2022/11/13 08:18:15;;;;;;;2.00;1.60;;;;;;;16.77;88.50;102207.13;20477920;28;20051;-89
2022/11/13 08:28:35;;;;;;;1.45;1.30;;;;;;;17.12;88.02;102262.34;20496245;28;20051;-89
2022/11/13 08:38:55;;;;;;;2.35;1.80;;;;;;;16.17;87.48;102100.66;20520009;28;20050;-89
2022/11/13 08:49:15;;;;;;;1.65;1.50;;;;;;;16.34;86.96;102111.19;20507925;28;20552;-91
2022/11/13 08:59:35;;;;;;;1.50;1.40;;;;;;;17.15;86.75;102227.19;20502476;28;20051;-90
2022/11/13 09:09:55;;;;;;;2.30;1.65;;;;;;;16.98;86.54;102190.59;20475781;28;20051;-90
2022/11/13 09:20:24;;;;;;;1.88;1.63;;;;;;;16.90;86.13;102169.56;20971779;27;20389;-90
2022/11/13 09:30:44;;;;;;;1.80;1.60;;;;;;;17.18;86.17;102202.75;20971808;28;20037;-90
2022/11/13 09:41:21;;;;;;;1.63;1.40;;;;;;;16.94;85.99;102173.78;20899488;28;20057;-89
2022/11/13 09:51:49;;;;;;;2.00;1.80;;;;;;;16.61;86.04;102110.41;20908391;28;20060;-87
2022/11/13 10:02:31;;;;;;;1.65;1.55;;;;;;;17.11;86.21;102190.66;20888461;28;20409;-88
2022/11/13 10:12:54;;;;;;;1.88;1.50;;;;;;;17.22;86.01;102192.66;20860831;28;20049;-88
2022/11/13 10:23:25;;;;;;;1.77;1.58;;;;;;;17.23;85.99;102187.19;20774635;28;20049;-89
2022/11/13 10:33:45;;;;;;;2.30;1.60;;;;;;;17.23;85.88;102173.75;20717023;28;20050;-89
2022/11/13 10:44:17;;;;;;;1.75;1.40;;;;;;;17.25;85.94;102162.84;20787149;28;20057;-88
2022/11/13 10:54:36;;;;;;;2.83;1.52;;;;;;;17.05;86.41;102110.34;20745715;28;20503;-89
2022/11/13 11:05:17;;;;;;;1.90;1.60;;;;;;;16.62;90.23;102036.88;20678892;28;20049;-87
2022/11/13 11:15:41;;;;;;;2.60;1.77;;;;;;;17.29;90.53;102125.84;20666485;28;20606;-87
2022/11/13 11:26:04;;;;;;;1.63;1.30;;;;;;;17.25;90.74;102112.59;20678401;28;21458;-91
2022/11/13 11:36:30;;;;;;;5.05;2.00;;;;;;;17.26;96.61;102100.00;20881026;22;20057;-87
2022/11/13 11:46:50;;;;;;;5.20;1.92;;;;;;;17.33;97.51;102092.38;20999983;28;20068;-91
2022/11/13 11:57:25;;;;;;;2.65;1.58;;;;;;;17.39;97.08;102081.19;20996751;28;20074;-90
2022/11/13 12:07:53;;;;;;;3.97;1.70;;;;;;;17.45;96.38;102067.31;20989381;28;20039;-89
2022/11/13 12:18:35;;;;;;;5.72;1.85;;;;;;;17.30;96.11;102017.22;20981297;28;20044;-92
2022/11/13 12:28:55;;;;;;;3.33;1.75;;;;;;;17.50;96.47;102032.84;20988217;28;20135;-92
2022/11/13 12:39:27;;;;;;;3.03;1.50;;;;;;;17.19;96.26;101959.59;21033734;28;20048;-93
2022/11/13 12:49:57;;;;;;;2.25;1.38;;;;;;;17.39;96.03;101989.66;21005429;28;20048;-94
2022/11/13 13:00:26;;;;;;;2.30;1.65;;;;;;;17.22;95.95;101958.53;21006458;27;20053;-92
2022/11/13 13:10:55;;;;;;;3.42;1.58;;;;;;;17.08;95.49;101928.06;20970970;28;20408;-95
2022/11/13 13:21:16;;;;;;;1.65;1.40;;;;;;;17.41;95.30;101971.59;21008282;28;20044;-94
2022/11/13 13:32:18;;;;;;;3.33;1.42;;;;;;;17.32;95.19;101953.38;20972704;28;20500;-91
2022/11/13 13:43:16;;;;;;;1.63;1.35;;;;;;;17.41;94.96;101958.13;20977439;28;20048;-93
2022/11/13 13:53:37;;;;;;;1.55;1.20;;;;;;;17.39;94.93;101952.84;20974587;28;20044;-91
2022/11/13 14:04:05;;;;;;;1.75;1.20;;;;;;;17.39;94.86;101951.97;21033269;28;20043;-91
2022/11/13 14:14:26;;;;;;;2.47;1.42;;;;;;;17.40;94.67;101938.41;21046630;28;20040;-93
2022/11/13 14:24:56;;;;;;;2.17;1.17;;;;;;;17.33;94.69;101917.44;21034460;28;20465;-93
2022/11/13 14:35:19;;;;;;;2.13;1.13;;;;;;;17.40;94.48;101926.78;21019618;28;20126;-93
2022/11/13 14:45:39;;;;;;;2.25;1.15;;;;;;;17.39;94.40;101925.06;21046603;28;20044;-94
2022/11/13 14:56:01;;;;;;;1.77;1.20;;;;;;;17.40;94.35;101910.63;21047744;28;20053;-94
2022/11/13 15:06:23;;;;;;;2.05;1.30;;;;;;;17.39;94.27;101906.22;21026198;27;20068;-95
2022/11/13 15:16:47;;;;;;;1.42;1.33;;;;;;;17.39;94.23;101893.59;21022833;27;20048;-96
2022/11/13 15:27:15;;;;;;;1.85;1.13;;;;;;;14.51;94.23;101446.56;21671636;22;20076;-96
2022/11/13 15:37:36;;;;;;;1.45;1.20;;;;;;;16.60;93.92;101752.97;20988404;28;20048;-93
2022/11/13 15:47:56;;;;;;;1.73;1.17;;;;;;;16.73;93.71;101777.16;20984069;28;20045;-95
2022/11/13 15:58:16;;;;;;;1.23;1.10;;;;;;;17.36;93.83;101855.31;21242868;23;20049;-93
2022/11/13 16:08:36;;;;;;;1.40;1.10;;;;;;;17.37;93.68;101855.19;20999620;28;20052;-95
2022/11/13 16:18:56;;;;;;;1.48;1.30;;;;;;;17.38;93.71;101859.59;20888445;28;20045;-94
2022/11/13 16:29:21;;;;;;;2.05;1.08;;;;;;;17.39;93.62;101865.84;20828879;28;20441;-88
2022/11/13 16:39:42;;;;;;;1.20;1.00;;;;;;;17.21;93.58;101831.19;20836373;28;20417;-93
2022/11/13 16:50:02;;;;;;;1.20;1.10;;;;;;;17.18;93.50;101820.63;21011399;23;20037;-94
2022/11/13 17:00:24;;;;;;;1.40;1.30;;;;;;;17.38;93.68;101839.91;20960007;28;20048;-96
2022/11/13 17:10:44;;;;;;;1.70;1.27;;;;;;;17.24;93.40;101806.78;20961895;28;20128;-95
2022/11/13 17:21:05;;;;;;;1.70;1.35;;;;;;;17.37;93.25;101824.72;20952868;28;20045;-93
2022/11/13 17:31:25;;;;;;;1.83;1.52;;;;;;;17.36;93.07;101793.41;20935936;28;20041;-95
2022/11/13 17:41:45;;;;;;;2.92;1.27;;;;;;;17.36;93.05;101788.84;20926576;28;20456;-95
2022/11/13 17:52:05;;;;;;;1.83;1.40;;;;;;;14.72;93.03;101331.75;21157367;22;20041;-94
2022/11/13 18:02:26;;;;;;;1.90;1.20;;;;;;;17.37;93.32;101776.28;20889699;28;20036;-96
2022/11/13 18:12:46;;;;;;;1.45;1.20;;;;;;;17.37;93.41;101771.75;20939817;28;20045;-93
2022/11/13 18:23:06;;;;;;;1.95;1.23;;;;;;;17.37;93.41;101765.50;20972912;28;20053;-92
2022/11/13 18:33:26;;;;;;;2.20;1.42;;;;;;;17.39;93.94;101755.50;21258424;22;20028;-93
2022/11/13 18:43:50;;;;;;;3.30;1.65;;;;;;;17.40;95.64;101757.22;22157328;22;20032;31
2022/11/13 19:04:47;;;;;;;2.17;1.50;;;;;;;17.42;96.33;101757.06;21432442;22;20045;-92
2022/11/13 19:15:08;;;;;;;2.75;1.48;;;;;;;17.42;96.51;101768.72;20757688;28;20053;-94
2022/11/13 19:25:28;;;;;;;3.13;1.83;;;;;;;17.22;96.41;101719.88;20765908;28;20042;-92
2022/11/13 19:35:53;;;;;;;2.17;1.70;;;;;;;16.83;96.18;101665.31;20782769;28;20049;-89
2022/11/13 19:46:16;;;;;;;2.30;1.45;;;;;;;17.44;96.31;101756.00;20761338;28;20050;-90
2022/11/13 19:56:36;;;;;;;2.65;1.77;;;;;;;17.44;96.14;101747.06;20768013;28;20065;-90
2022/11/13 20:06:56;;;;;;;2.40;1.75;;;;;;;17.43;96.27;101740.84;20771856;28;20133;-92
2022/11/13 20:17:16;;;;;;;2.13;1.67;;;;;;;17.42;96.46;101731.03;20759620;28;20041;-93
2022/11/13 20:27:38;;;;;;;2.22;1.50;;;;;;;17.41;96.22;101729.31;20763663;28;20057;-92
2022/11/13 20:38:04;;;;;;;1.83;1.70;;;;;;;17.38;95.87;101725.00;20784510;28;20045;-94
2022/11/13 20:48:25;;;;;;;2.45;1.50;;;;;;;17.33;95.60;101720.94;20811178;28;20049;-93
2022/11/13 20:58:45;;;;;;;2.05;1.50;;;;;;;17.29;95.64;101714.06;20793844;28;20406;-93
2022/11/13 21:09:05;;;;;;;2.53;1.50;;;;;;;17.24;95.66;101707.22;20791740;28;20049;-91
2022/11/13 21:19:25;;;;;;;1.88;1.63;;;;;;;17.21;95.75;101704.72;20715623;28;20073;-92
2022/11/13 21:29:45;;;;;;;2.60;1.80;;;;;;;16.86;95.53;101654.31;20693315;28;20081;-91
2022/11/13 21:40:06;;;;;;;2.22;1.52;;;;;;;17.17;95.63;101662.00;20705659;28;20495;-92
2022/11/13 21:50:27;;;;;;;2.78;2.08;;;;;;;17.15;95.73;101670.19;20750482;28;20046;-92
2022/11/13 22:00:46;;;;;;;2.35;1.80;;;;;;;17.14;95.62;101679.22;20826296;28;20410;-92
2022/11/13 22:11:06;;;;;;;1.85;1.70;;;;;;;17.12;95.68;101665.03;20776816;28;20489;-91
2022/11/13 22:21:27;;;;;;;1.92;1.73;;;;;;;17.10;95.39;101654.41;20793125;28;20465;-92
2022/11/13 22:31:48;;;;;;;2.13;1.80;;;;;;;17.10;95.59;101634.69;20803669;28;20050;-93
2022/11/13 22:42:07;;;;;;;2.15;1.95;;;;;;;17.08;95.37;101609.72;20788850;28;20053;-92
2022/11/13 22:52:28;;;;;;;1.85;1.63;;;;;;;16.82;95.36;101577.53;20803156;28;20050;-92
2022/11/13 23:02:48;;;;;;;1.67;1.45;;;;;;;17.06;95.51;101612.56;20794451;28;20046;-92
2022/11/13 23:13:08;;;;;;;2.13;1.63;;;;;;;17.05;95.80;101599.19;20772924;28;20049;-91
2022/11/13 23:23:28;;;;;;;2.58;2.17;;;;;;;17.03;95.34;101566.19;20772887;28;20045;-93
2022/11/13 23:33:48;;;;;;;2.08;1.60;;;;;;;16.82;95.22;101519.22;20799854;28;20061;-91
2022/11/13 23:44:08;;;;;;;2.20;1.70;;;;;;;16.84;95.34;101505.66;20800330;28;20097;-91
2022/11/13 23:54:29;;;;;;;2.47;1.60;;;;;;;16.73;95.29;101481.38;20798233;28;20478;-92
